Time;durP1;ratioP1;P1;durP2;ratioP2;P2;SDS_P1;SDS_P2;PMS_P1;PMS_P2;Temp;Humidity;BMP_temperature;BMP_pressure;BME280_temperature;BME280_humidity;BME280_pressure;Samples;Min_cycle;Max_cycle;Signal;HPM_P1;HPM_P2
2022/11/15 00:00:19;;;;;;;83.05;29.52;;;;;;;;;;1644020;86;21595;-89
2022/11/15 00:02:45;;;;;;;89.05;30.25;;;;;;;;;;1644215;86;20958;-89
2022/11/15 00:05:10;;;;;;;83.60;29.23;;;;;;;;;;1643772;86;21796;-88
2022/11/15 00:07:36;;;;;;;87.88;28.98;;;;;;;;;;1644379;86;20870;-89
2022/11/15 00:10:02;;;;;;;87.05;28.80;;;;;;;;;;1638387;86;20953;-88
2022/11/15 00:12:28;;;;;;;85.05;27.52;;;;;;;;;;1637539;86;21021;-87
2022/11/15 00:14:54;;;;;;;77.47;26.27;;;;;;;;;;1637686;86;20890;-94
2022/11/15 00:17:20;;;;;;;84.35;27.58;;;;;;;;;;1637850;86;21065;-88
2022/11/15 00:19:45;;;;;;;77.97;28.00;;;;;;;;;;1641535;86;20912;-85
2022/11/15 00:22:11;;;;;;;84.83;28.35;;;;;;;;;;1652168;86;20958;-88
2022/11/15 00:24:37;;;;;;;87.72;29.35;;;;;;;;;;1652096;86;20907;-87
2022/11/15 00:27:02;;;;;;;90.55;30.50;;;;;;;;;;1651441;86;21081;-88
2022/11/15 00:29:28;;;;;;;94.10;31.00;;;;;;;;;;1652097;86;21399;-88
2022/11/15 00:31:54;;;;;;;85.65;27.40;;;;;;;;;;1650692;86;20895;-88
2022/11/15 00:34:19;;;;;;;85.03;27.20;;;;;;;;;;1694492;83;20959;-88
2022/11/15 00:36:45;;;;;;;93.42;31.02;;;;;;;;;;1704177;84;20959;-85
2022/11/15 00:39:11;;;;;;;93.03;32.08;;;;;;;;;;1704587;84;20806;-87
2022/11/15 00:41:36;;;;;;;106.00;33.58;;;;;;;;;;1704039;84;21145;-87
2022/11/15 00:44:02;;;;;;;101.80;32.78;;;;;;;;;;1704155;84;20873;-88
2022/11/15 00:46:28;;;;;;;99.90;32.42;;;;;;;;;;1704304;84;20897;-87
2022/11/15 00:48:54;;;;;;;104.80;32.03;;;;;;;;;;1704200;84;21511;-92
2022/11/15 00:51:19;;;;;;;95.32;30.92;;;;;;;;;;1704266;83;20924;-88
2022/11/15 00:53:45;;;;;;;89.03;30.45;;;;;;;;;;1704111;84;21483;-85
2022/11/15 00:56:11;;;;;;;103.47;31.62;;;;;;;;;;1703903;84;20912;-88
2022/11/15 00:58:37;;;;;;;121.67;34.88;;;;;;;;;;1704254;84;20951;-87
2022/11/15 01:01:09;;;;;;;153.42;44.55;;;;;;;;;;1704445;84;20860;-87
2022/11/15 01:03:36;;;;;;;142.53;40.40;;;;;;;;;;1622488;88;21051;-87
2022/11/15 01:06:02;;;;;;;131.85;39.33;;;;;;;;;;1622522;87;21151;-87
2022/11/15 01:08:28;;;;;;;180.63;45.38;;;;;;;;;;1622745;87;21135;-88
2022/11/15 01:10:54;;;;;;;228.77;51.20;;;;;;;;;;1622735;88;20935;-88
2022/11/15 01:13:20;;;;;;;208.50;53.17;;;;;;;;;;1622826;88;20975;-87
2022/11/15 01:15:46;;;;;;;205.20;49.13;;;;;;;;;;1622976;88;21476;-88
2022/11/15 01:18:12;;;;;;;301.65;52.30;;;;;;;;;;1622977;88;21195;-87
2022/11/15 01:20:41;;;;;;;309.95;50.23;;;;;;;;;;1622804;88;20932;-87
2022/11/15 01:23:07;;;;;;;336.25;48.38;;;;;;;;;;1622585;88;21103;-88
2022/11/15 01:25:33;;;;;;;331.77;49.70;;;;;;;;;;1622787;88;21756;-87
2022/11/15 01:27:59;;;;;;;304.60;47.17;;;;;;;;;;1622817;87;20972;-87
2022/11/15 01:30:25;;;;;;;272.55;50.17;;;;;;;;;;1622979;88;21089;-87
2022/11/15 01:32:51;;;;;;;272.88;48.17;;;;;;;;;;1622967;88;20940;-88
2022/11/15 01:35:17;;;;;;;237.42;48.38;;;;;;;;;;1622900;88;20936;-86
2022/11/15 01:37:43;;;;;;;207.07;45.85;;;;;;;;;;1622798;87;20981;-88
2022/11/15 01:40:09;;;;;;;170.72;39.30;;;;;;;;;;1622764;87;21714;-88
2022/11/15 01:42:35;;;;;;;172.70;34.08;;;;;;;;;;1622786;88;21150;-86
2022/11/15 01:45:01;;;;;;;143.45;33.90;;;;;;;;;;1622903;88;20896;-88
2022/11/15 01:47:33;;;;;;;148.97;31.45;;;;;;;;;;1622860;88;21118;-86
2022/11/15 01:50:06;;;;;;;162.70;34.98;;;;;;;;;;1623180;88;21086;-87
2022/11/15 01:52:34;;;;;;;178.60;33.40;;;;;;;;;;1622825;88;21110;-91
2022/11/15 01:55:18;;;;;;;142.40;30.90;;;;;;;;;;1622716;88;21156;-87
2022/11/15 01:57:46;;;;;;;144.77;30.82;;;;;;;;;;1552410;91;21531;-94
2022/11/15 02:00:14;;;;;;;131.85;30.57;;;;;;;;;;1585311;87;21082;-88
2022/11/15 02:02:40;;;;;;;132.78;29.70;;;;;;;;;;1633508;86;21185;-87
2022/11/15 02:05:07;;;;;;;141.85;29.95;;;;;;;;;;1633317;86;21085;-87
2022/11/15 02:07:34;;;;;;;119.90;29.25;;;;;;;;;;1633422;87;21168;-86
2022/11/15 02:10:04;;;;;;;127.22;32.55;;;;;;;;;;1628776;86;21476;-87
2022/11/15 02:12:30;;;;;;;104.38;30.12;;;;;;;;;;1595876;89;21202;-87
2022/11/15 02:14:56;;;;;;;103.15;29.90;;;;;;;;;;1598920;89;21008;-86
2022/11/15 02:17:43;;;;;;;92.05;27.85;;;;;;;;;;1598886;89;21150;-87
2022/11/15 02:20:16;;;;;;;91.15;28.45;;;;;;;;;;1599060;89;21108;-87
2022/11/15 02:22:53;;;;;;;;;;;;;;;;;;1533978;93;21100;-87
2022/11/15 02:25:42;;;;;;;133.72;37.58;;;;;;;;;;1528518;92;20210;-87
2022/11/15 02:28:33;;;;;;;392.35;103.27;;;;;;;;;;1531982;92;21568;-86
2022/11/15 02:31:22;;;;;;;169.15;42.38;;;;;;;;;;1531896;93;21119;-87
2022/11/15 02:34:00;;;;;;;113.12;24.92;;;;;;;;;;1532304;92;21797;-87
2022/11/15 02:36:32;;;;;;;113.00;23.50;;;;;;;;;;1531625;93;21083;-87
2022/11/15 02:39:17;;;;;;;103.45;22.90;;;;;;;;;;1529318;93;21669;-87
2022/11/15 02:41:49;;;;;;;129.25;24.72;;;;;;;;;;1500591;95;21116;-86
2022/11/15 02:44:35;;;;;;;90.80;23.40;;;;;;;;;;1484058;96;21724;-92
2022/11/15 02:47:12;;;;;;;71.20;23.12;;;;;;;;;;1484020;96;21157;-87
2022/11/15 02:49:41;;;;;;;67.27;21.57;;;;;;;;;;1483837;96;21152;-87
2022/11/15 02:52:07;;;;;;;59.88;19.73;;;;;;;;;;1484079;96;21194;-87
2022/11/15 02:54:34;;;;;;;58.80;19.57;;;;;;;;;;1509172;94;20958;-86
2022/11/15 02:57:03;;;;;;;64.37;22.67;;;;;;;;;;1511868;94;21097;-87
2022/11/15 02:59:48;;;;;;;84.75;19.95;;;;;;;;;;1469753;95;21153;-87
2022/11/15 03:02:23;;;;;;;64.32;20.27;;;;;;;;;;1474754;95;21057;-86
2022/11/15 03:04:55;;;;;;;60.08;20.75;;;;;;;;;;1477646;95;21136;-88
2022/11/15 03:07:42;;;;;;;68.92;20.65;;;;;;;;;;1477309;95;21124;-86
2022/11/15 03:10:15;;;;;;;64.55;21.10;;;;;;;;;;1485418;95;21211;-86
2022/11/15 03:12:44;;;;;;;50.60;18.27;;;;;;;;;;1488350;95;21114;-86
2022/11/15 03:15:22;;;;;;;63.95;22.27;;;;;;;;;;1488015;96;21128;-87
2022/11/15 03:17:54;;;;;;;59.38;20.48;;;;;;;;;;1487795;95;21145;-86
2022/11/15 03:20:20;;;;;;;58.85;20.27;;;;;;;;;;1488147;95;22081;-87
2022/11/15 03:22:47;;;;;;;57.88;21.25;;;;;;;;;;1488325;95;21038;-85
2022/11/15 03:25:17;;;;;;;66.87;22.50;;;;;;;;;;1487987;95;21200;-86
2022/11/15 03:27:46;;;;;;;57.08;20.85;;;;;;;;;;1485669;95;21115;-86
2022/11/15 03:30:13;;;;;;;65.15;20.45;;;;;;;;;;1488848;95;21209;-87
2022/11/15 03:32:48;;;;;;;60.58;20.72;;;;;;;;;;1489057;94;21240;-86
2022/11/15 03:35:28;;;;;;;62.78;20.23;;;;;;;;;;1489572;95;21174;-87
2022/11/15 03:38:21;;;;;;;64.95;20.90;;;;;;;;;;1489281;95;21250;-87
2022/11/15 03:41:07;;;;;;;50.63;19.15;;;;;;;;;;1489437;95;21574;-90
2022/11/15 03:43:48;;;;;;;48.23;17.77;;;;;;;;;;1489185;95;21168;-85
2022/11/15 03:46:16;;;;;;;48.20;19.40;;;;;;;;;;1521571;92;21104;-90
2022/11/15 03:48:54;;;;;;;52.50;18.07;;;;;;;;;;1575217;89;21118;-86
2022/11/15 03:51:20;;;;;;;46.42;17.67;;;;;;;;;;1523713;93;21178;-85
2022/11/15 03:53:46;;;;;;;48.25;18.82;;;;;;;;;;1511852;94;21113;-84
2022/11/15 03:56:12;;;;;;;48.75;16.87;;;;;;;;;;1553358;88;21079;-86
2022/11/15 03:58:38;;;;;;;45.43;18.23;;;;;;;;;;1612212;89;20934;-86
2022/11/15 04:01:04;;;;;;;45.17;16.50;;;;;;;;;;1628502;87;20904;-86
2022/11/15 04:03:30;;;;;;;47.88;17.17;;;;;;;;;;1614494;88;21165;-85
2022/11/15 04:05:56;;;;;;;41.40;18.12;;;;;;;;;;1614041;88;20884;-84
2022/11/15 04:08:22;;;;;;;45.83;17.77;;;;;;;;;;1614398;88;20940;-86
2022/11/15 04:10:49;;;;;;;42.40;17.32;;;;;;;;;;1615918;88;21524;-85
2022/11/15 04:13:15;;;;;;;43.85;17.40;;;;;;;;;;1677871;85;21002;-89
2022/11/15 04:15:41;;;;;;;44.65;16.02;;;;;;;;;;1677741;85;21035;-85
2022/11/15 04:18:07;;;;;;;43.98;16.42;;;;;;;;;;1677732;85;20977;-84
2022/11/15 04:26:07;;;;;;;46.95;17.57;;;;;;;;;;1677440;85;21042;-86
2022/11/15 04:28:33;;;;;;;48.48;17.05;;;;;;;;;;1674448;85;21064;-85
2022/11/15 04:30:59;;;;;;;44.03;16.60;;;;;;;;;;1677493;85;21117;-85
2022/11/15 04:33:26;;;;;;;50.38;18.10;;;;;;;;;;1677786;85;21735;-85
2022/11/15 04:38:37;;;;;;;70.57;23.77;;;;;;;;;;1677372;85;21561;-85
2022/11/15 04:41:03;;;;;;;79.00;23.70;;;;;;;;;;1677645;85;21081;-85
2022/11/15 04:43:29;;;;;;;68.95;22.82;;;;;;;;;;1677381;85;20918;-87
2022/11/15 04:45:55;;;;;;;79.40;26.00;;;;;;;;;;1677824;85;21178;-90
2022/11/15 04:48:21;;;;;;;87.72;27.20;;;;;;;;;;1704015;84;20885;-86
2022/11/15 04:50:50;;;;;;;109.92;27.07;;;;;;;;;;1704385;84;21148;-86
2022/11/15 04:53:16;;;;;;;161.55;28.83;;;;;;;;;;1704251;84;21060;-87
2022/11/15 04:55:46;;;;;;;98.90;26.77;;;;;;;;;;1704258;84;21637;-84
2022/11/15 04:58:12;;;;;;;130.50;37.25;;;;;;;;;;1703907;84;21460;-86
2022/11/15 05:00:39;;;;;;;146.40;44.55;;;;;;;;;;1704114;84;20893;-86
2022/11/15 05:05:49;;;;;;;128.30;39.70;;;;;;;;;;1704415;84;21516;-86
2022/11/15 05:08:15;;;;;;;131.85;39.15;;;;;;;;;;1704120;84;20895;-85
2022/11/15 05:10:41;;;;;;;130.70;38.28;;;;;;;;;;1703078;83;21797;-86
2022/11/15 05:13:07;;;;;;;107.22;32.53;;;;;;;;;;1699576;84;21101;-84
2022/11/15 05:15:32;;;;;;;111.22;34.33;;;;;;;;;;1679666;84;20893;-86
2022/11/15 05:18:00;;;;;;;104.38;33.42;;;;;;;;;;1699590;83;21061;-86
2022/11/15 05:20:26;;;;;;;109.52;31.02;;;;;;;;;;1699191;83;21043;-87
2022/11/15 05:22:53;;;;;;;88.22;26.12;;;;;;;;;;1699481;84;20979;-86
2022/11/15 05:25:19;;;;;;;79.92;25.43;;;;;;;;;;1699655;83;21085;-87
2022/11/15 05:27:45;;;;;;;84.97;24.57;;;;;;;;;;1699622;83;20944;-94
2022/11/15 05:30:11;;;;;;;79.97;24.65;;;;;;;;;;1679798;84;21092;-87
2022/11/15 05:32:36;;;;;;;87.22;27.07;;;;;;;;;;1699387;83;20975;-84
2022/11/15 05:35:02;;;;;;;104.55;28.92;;;;;;;;;;1699614;83;20818;-85
2022/11/15 05:37:28;;;;;;;111.52;31.48;;;;;;;;;;1699397;83;21152;-86
2022/11/15 05:39:54;;;;;;;106.25;30.68;;;;;;;;;;1699652;84;21761;-85
2022/11/15 05:42:20;;;;;;;95.17;28.32;;;;;;;;;;1699517;83;21287;-85
2022/11/15 05:44:48;;;;;;;89.03;27.80;;;;;;;;;;1699308;83;20885;-86
2022/11/15 05:47:20;;;;;;;94.37;29.45;;;;;;;;;;1699552;83;21489;-86
2022/11/15 05:49:48;;;;;;;85.03;28.83;;;;;;;;;;1684489;84;21487;-83
2022/11/15 05:52:15;;;;;;;89.95;26.37;;;;;;;;;;1684453;85;21093;-86
2022/11/15 05:54:41;;;;;;;78.50;24.45;;;;;;;;;;1684404;85;21115;-86
2022/11/15 05:57:10;;;;;;;68.80;23.25;;;;;;;;;;1684287;85;21069;-85
2022/11/15 05:59:40;;;;;;;56.40;21.02;;;;;;;;;;1684380;85;21602;-85
2022/11/15 06:02:06;;;;;;;69.32;19.80;;;;;;;;;;1684183;85;21139;-84
2022/11/15 06:04:32;;;;;;;58.70;19.23;;;;;;;;;;1684225;85;20904;-85
2022/11/15 06:06:59;;;;;;;64.90;20.40;;;;;;;;;;1684692;85;21723;-88
2022/11/15 06:09:25;;;;;;;59.85;20.32;;;;;;;;;;1684458;85;21089;-88
2022/11/15 06:11:50;;;;;;;56.88;20.30;;;;;;;;;;1684117;84;20880;-88
2022/11/15 06:14:16;;;;;;;57.55;20.35;;;;;;;;;;1682542;85;20868;-86
2022/11/15 06:19:09;;;;;;;49.80;19.80;;;;;;;;;;1655346;86;21071;-89
2022/11/15 06:21:37;;;;;;;51.83;20.97;;;;;;;;;;1655736;86;21737;-88
2022/11/15 06:24:03;;;;;;;45.38;20.55;;;;;;;;;;1655540;86;21417;-90
2022/11/15 06:26:31;;;;;;;44.60;20.80;;;;;;;;;;1655752;86;21578;-90
2022/11/15 06:28:57;;;;;;;50.60;21.75;;;;;;;;;;1635552;87;21136;-89
2022/11/15 06:31:23;;;;;;;56.73;22.45;;;;;;;;;;1635586;87;21145;-91
2022/11/15 06:33:49;;;;;;;65.32;24.45;;;;;;;;;;1613565;87;21511;-91
2022/11/15 06:36:16;;;;;;;68.12;25.48;;;;;;;;;;1635442;87;21149;-91
2022/11/15 06:38:43;;;;;;;68.28;26.75;;;;;;;;;;1635629;86;21110;-92
2022/11/15 06:41:10;;;;;;;66.47;24.63;;;;;;;;;;1636006;87;21141;-92
2022/11/15 06:43:36;;;;;;;68.62;25.60;;;;;;;;;;1635878;87;21075;-91
2022/11/15 06:46:04;;;;;;;66.57;25.40;;;;;;;;;;1640080;86;21543;-93
2022/11/15 06:48:30;;;;;;;66.87;25.43;;;;;;;;;;1647814;87;21149;-92
2022/11/15 06:50:59;;;;;;;55.45;21.75;;;;;;;;;;1647972;87;21578;-90
2022/11/15 06:53:26;;;;;;;57.83;21.12;;;;;;;;;;1648265;87;21021;-94
2022/11/15 06:55:52;;;;;;;53.20;21.90;;;;;;;;;;1647784;87;22286;-94
2022/11/15 06:58:18;;;;;;;55.80;22.17;;;;;;;;;;1626017;87;21106;-93
2022/11/15 07:00:44;;;;;;;50.73;21.82;;;;;;;;;;1648156;85;21126;-95
2022/11/15 07:03:10;;;;;;;53.55;22.20;;;;;;;;;;1648109;87;21194;-95
2022/11/15 07:05:36;;;;;;;55.38;22.40;;;;;;;;;;1689658;83;20895;-95
2022/11/15 07:08:03;;;;;;;46.15;20.23;;;;;;;;;;1703799;83;21085;-93
2022/11/15 07:10:29;;;;;;;41.15;18.77;;;;;;;;;;1703760;84;21076;-96
2022/11/15 07:12:59;;;;;;;37.70;16.97;;;;;;;;;;1703512;83;21070;-94
2022/11/15 07:15:26;;;;;;;35.88;16.17;;;;;;;;;;1704531;83;21088;-95
2022/11/15 07:17:52;;;;;;;38.05;14.80;;;;;;;;;;1710370;83;21801;-93
2022/11/15 07:20:18;;;;;;;35.92;15.93;;;;;;;;;;1710521;83;21113;-94
2022/11/15 07:25:12;;;;;;;26.20;12.63;;;;;;;;;;1678019;84;21175;-94
2022/11/15 07:27:38;;;;;;;27.00;11.68;;;;;;;;;;1697501;84;21633;-94
2022/11/15 07:30:05;;;;;;;27.00;12.18;;;;;;;;;;1697110;84;20892;-95
2022/11/15 07:32:31;;;;;;;28.65;12.07;;;;;;;;;;1698264;84;21652;-95
2022/11/15 07:34:57;;;;;;;29.37;11.30;;;;;;;;;;1685108;84;20904;-95
2022/11/15 07:37:23;;;;;;;22.42;11.50;;;;;;;;;;1670043;86;20917;-95
2022/11/15 07:39:48;;;;;;;26.07;11.75;;;;;;;;;;1670051;86;21109;-95
2022/11/15 07:44:58;;;;;;;20.25;9.68;;;;;;;;;;1669456;85;21008;-95
2022/11/15 07:47:24;;;;;;;24.40;10.65;;;;;;;;;;1669655;85;21666;-94
2022/11/15 07:49:50;;;;;;;25.57;12.95;;;;;;;;;;1646985;86;20964;-94
2022/11/15 07:52:16;;;;;;;27.80;12.95;;;;;;;;;;1669469;86;21600;-94
2022/11/15 07:54:42;;;;;;;28.73;13.78;;;;;;;;;;1669406;86;22592;-95
2022/11/15 07:57:09;;;;;;;23.45;11.22;;;;;;;;;;1669500;85;21165;-93
2022/11/15 07:59:35;;;;;;;23.15;9.73;;;;;;;;;;1670669;84;21495;-95
2022/11/15 08:02:01;;;;;;;17.95;7.90;;;;;;;;;;1669462;86;20884;-95
2022/11/15 08:04:29;;;;;;;16.15;7.90;;;;;;;;;;1682235;83;21325;-95
2022/11/15 08:06:55;;;;;;;17.73;7.65;;;;;;;;;;1697824;84;21084;-94
2022/11/15 08:15:10;;;;;;;20.17;8.43;;;;;;;;;;1522599;93;21048;-90
2022/11/15 08:18:09;;;;;;;17.85;8.25;;;;;;;;;;1495394;94;21557;-91
2022/11/15 08:26:24;;;;;;;15.65;7.10;;;;;;;;;;1401554;100;21174;-93
2022/11/15 08:28:50;;;;;;;19.20;6.72;;;;;;;;;;1402928;100;21142;-89
2022/11/15 08:31:17;;;;;;;13.58;6.20;;;;;;;;;;1408295;100;21680;-89
2022/11/15 08:33:44;;;;;;;15.88;7.62;;;;;;;;;;1422440;100;21711;-93
2022/11/15 08:36:12;;;;;;;15.80;6.72;;;;;;;;;;1422464;100;21176;-92
2022/11/15 08:38:38;;;;;;;14.47;5.60;;;;;;;;;;1427874;99;21108;-91
2022/11/15 08:41:05;;;;;;;16.95;5.95;;;;;;;;;;1426859;98;21849;-91
2022/11/15 08:43:31;;;;;;;20.48;6.08;;;;;;;;;;1419907;99;21120;-89
2022/11/15 08:45:58;;;;;;;16.32;5.87;;;;;;;;;;1419480;99;21013;-90
2022/11/15 08:48:24;;;;;;;13.90;6.30;;;;;;;;;;1419436;99;21155;-84
2022/11/15 08:50:53;;;;;;;14.28;6.42;;;;;;;;;;1419285;99;21177;-90
2022/11/15 08:53:21;;;;;;;16.90;6.28;;;;;;;;;;1378188;103;21163;-92
2022/11/15 08:55:47;;;;;;;15.63;6.37;;;;;;;;;;1434377;97;21162;-91
2022/11/15 08:58:12;;;;;;;17.00;6.33;;;;;;;;;;1479368;97;21184;-86
2022/11/15 09:00:38;;;;;;;14.68;5.15;;;;;;;;;;1482636;95;21212;-87
2022/11/15 09:03:06;;;;;;;10.68;4.05;;;;;;;;;;1479466;97;21021;-89
2022/11/15 09:05:32;;;;;;;14.68;4.70;;;;;;;;;;1490495;94;21179;-88
2022/11/15 09:07:59;;;;;;;8.73;3.90;;;;;;;;;;1490145;96;21621;-87
2022/11/15 09:10:25;;;;;;;9.03;3.58;;;;;;;;;;1492088;94;21747;-92
2022/11/15 09:12:50;;;;;;;8.40;3.22;;;;;;;;;;1503428;95;21190;-91
2022/11/15 09:15:17;;;;;;;13.35;3.50;;;;;;;;;;1503290;95;21589;-90
2022/11/15 09:17:43;;;;;;;8.50;3.35;;;;;;;;;;1503550;95;20954;-90
2022/11/15 09:20:09;;;;;;;10.58;3.55;;;;;;;;;;1542397;90;20992;-90
2022/11/15 09:22:36;;;;;;;9.65;3.52;;;;;;;;;;1591355;90;21542;-90
2022/11/15 09:25:03;;;;;;;10.93;3.42;;;;;;;;;;1591308;90;21375;-90
2022/11/15 09:27:29;;;;;;;8.90;3.42;;;;;;;;;;1591758;90;21547;-90
2022/11/15 09:29:55;;;;;;;6.65;2.98;;;;;;;;;;1600336;85;21645;-90
2022/11/15 09:32:23;;;;;;;7.50;3.10;;;;;;;;;;1675358;85;20881;-90
2022/11/15 09:34:49;;;;;;;6.50;3.08;;;;;;;;;;1675177;85;21028;-89
2022/11/15 09:37:15;;;;;;;7.67;3.10;;;;;;;;;;1675039;85;21239;-91
2022/11/15 09:39:41;;;;;;;8.83;3.12;;;;;;;;;;1675070;85;21737;-91
2022/11/15 09:42:10;;;;;;;6.05;2.83;;;;;;;;;;1675002;85;20926;-90
2022/11/15 09:44:52;;;;;;;7.65;2.65;;;;;;;;;;1675236;85;21446;-90
2022/11/15 09:47:38;;;;;;;9.38;3.37;;;;;;;;;;1674986;85;21001;-91
2022/11/15 09:50:12;;;;;;;7.83;3.47;;;;;;;;;;1674586;85;21208;-90
2022/11/15 09:52:41;;;;;;;11.83;3.00;;;;;;;;;;1675176;85;21051;-92
2022/11/15 09:55:21;;;;;;;7.30;2.72;;;;;;;;;;1675940;85;21123;-91
2022/11/15 09:57:52;;;;;;;10.48;3.83;;;;;;;;;;1652503;85;21095;-91
2022/11/15 10:00:24;;;;;;;9.35;3.20;;;;;;;;;;1670413;85;21088;-91
2022/11/15 10:03:06;;;;;;;7.42;3.47;;;;;;;;;;1710668;82;22055;-91
2022/11/15 10:05:35;;;;;;;6.85;2.95;;;;;;;;;;1721865;80;20949;-92
2022/11/15 10:08:14;;;;;;;19.17;6.75;;;;;;;;;;1714206;83;21031;-91
2022/11/15 10:10:43;;;;;;;41.70;14.50;;;;;;;;;;1714505;83;21083;-93
2022/11/15 10:13:27;;;;;;;19.67;6.40;;;;;;;;;;1714875;82;21540;-91
2022/11/15 10:15:54;;;;;;;13.55;4.60;;;;;;;;;;1714884;82;21075;-93
2022/11/15 10:18:30;;;;;;;20.43;7.03;;;;;;;;;;1714998;83;21097;-92
2022/11/15 10:20:58;;;;;;;10.43;4.22;;;;;;;;;;1673600;84;21138;-92
2022/11/15 10:23:24;;;;;;;8.53;3.83;;;;;;;;;;1676255;85;21086;-94
2022/11/15 10:25:56;;;;;;;15.80;5.80;;;;;;;;;;1676219;85;21106;-92
2022/11/15 10:28:27;;;;;;;13.48;4.92;;;;;;;;;;1676248;85;21195;-92
2022/11/15 10:30:56;;;;;;;10.90;4.33;;;;;;;;;;1651830;85;21638;-92
2022/11/15 10:33:29;;;;;;;11.00;3.55;;;;;;;;;;1650700;86;21014;-92
2022/11/15 10:36:13;;;;;;;10.80;3.80;;;;;;;;;;1649867;86;21581;-92
2022/11/15 10:39:33;;;;;;;9.80;3.42;;;;;;;;;;1649836;85;21073;-90
2022/11/15 10:42:02;;;;;;;14.65;4.40;;;;;;;;;;1666891;84;21238;-92
2022/11/15 10:44:31;;;;;;;21.60;7.92;;;;;;;;;;1668114;85;21149;-93
2022/11/15 10:47:00;;;;;;;11.00;4.03;;;;;;;;;;1672073;85;21506;-92
2022/11/15 10:49:28;;;;;;;11.93;3.80;;;;;;;;;;1672097;85;21092;-93
2022/11/15 10:52:15;;;;;;;10.55;4.03;;;;;;;;;;1558095;92;21079;-90
2022/11/15 10:54:49;;;;;;;9.05;3.17;;;;;;;;;;1587577;90;21186;-92
2022/11/15 10:57:18;;;;;;;8.38;3.98;;;;;;;;;;1590027;88;21244;-91
2022/11/15 10:59:49;;;;;;;5.75;3.02;;;;;;;;;;1565447;91;21029;-92
2022/11/15 11:02:35;;;;;;;10.93;3.95;;;;;;;;;;1565664;91;21041;-92
2022/11/15 11:05:03;;;;;;;11.40;3.52;;;;;;;;;;1565719;91;21627;-91
2022/11/15 11:07:32;;;;;;;13.72;5.03;;;;;;;;;;1565839;91;21315;-92
2022/11/15 11:10:00;;;;;;;16.73;5.60;;;;;;;;;;1534638;93;21074;-92
2022/11/15 11:12:31;;;;;;;13.03;4.72;;;;;;;;;;1563482;90;21109;-93
2022/11/15 11:14:59;;;;;;;11.12;4.42;;;;;;;;;;1548721;92;20959;-92
2022/11/15 11:17:48;;;;;;;11.73;4.33;;;;;;;;;;1509690;93;21139;-95
2022/11/15 11:20:20;;;;;;;29.07;8.60;;;;;;;;;;1457711;98;21356;-92
2022/11/15 11:22:52;;;;;;;17.70;5.50;;;;;;;;;;1450740;97;21118;-89
2022/11/15 11:25:28;;;;;;;11.00;3.77;;;;;;;;;;1416769;99;21724;-93
2022/11/15 11:28:13;;;;;;;10.15;3.72;;;;;;;;;;1441768;98;21666;-92
2022/11/15 11:30:54;;;;;;;34.33;11.08;;;;;;;;;;1414768;100;21186;-89
2022/11/15 11:33:24;;;;;;;37.50;12.18;;;;;;;;;;1432162;99;21353;-92
2022/11/15 11:35:56;;;;;;;26.77;9.00;;;;;;;;;;1431867;98;21620;-91
2022/11/15 11:38:34;;;;;;;17.87;6.08;;;;;;;;;;1432800;99;21084;-93
2022/11/15 11:41:22;;;;;;;18.23;6.17;;;;;;;;;;1445141;97;21116;-93
2022/11/15 11:44:08;;;;;;;12.00;4.75;;;;;;;;;;1451227;98;21640;-91
2022/11/15 11:46:58;;;;;;;13.68;4.35;;;;;;;;;;1453840;98;21914;-88
2022/11/15 11:49:37;;;;;;;16.02;4.22;;;;;;;;;;1498126;93;21142;-94
2022/11/15 11:52:06;;;;;;;14.50;4.33;;;;;;;;;;1517400;94;21129;-90
2022/11/15 11:54:38;;;;;;;11.65;5.22;;;;;;;;;;1514627;94;21519;-90
2022/11/15 11:57:08;;;;;;;14.90;4.73;;;;;;;;;;1517836;94;21823;-93
2022/11/15 11:59:43;;;;;;;12.88;5.60;;;;;;;;;;1514526;93;21129;-91
2022/11/15 12:02:18;;;;;;;17.45;6.58;;;;;;;;;;1517418;93;20995;-87
2022/11/15 12:04:47;;;;;;;20.92;6.92;;;;;;;;;;1517536;93;21110;-88
2022/11/15 12:07:17;;;;;;;18.40;7.20;;;;;;;;;;1533169;90;21171;-89
2022/11/15 12:10:04;;;;;;;16.12;5.67;;;;;;;;;;1598209;88;21125;-90
2022/11/15 12:12:34;;;;;;;18.52;6.22;;;;;;;;;;1599425;85;21892;-89
2022/11/15 12:15:06;;;;;;;20.37;6.72;;;;;;;;;;1710369;82;21047;-91
2022/11/15 12:17:32;;;;;;;18.90;7.10;;;;;;;;;;1731924;82;21496;-93
2022/11/15 12:20:03;;;;;;;19.67;7.08;;;;;;;;;;1734800;82;21026;-91
2022/11/15 12:22:38;;;;;;;19.17;6.75;;;;;;;;;;1690464;83;21550;-92
2022/11/15 12:25:10;;;;;;;23.15;7.85;;;;;;;;;;1648796;86;21186;-92
2022/11/15 12:27:39;;;;;;;29.60;9.43;;;;;;;;;;1647695;85;21025;-92
2022/11/15 12:30:14;;;;;;;22.73;8.08;;;;;;;;;;1650808;85;21619;-92
2022/11/15 12:32:53;;;;;;;24.55;9.68;;;;;;;;;;1564918;91;21104;-92
2022/11/15 12:35:25;;;;;;;37.65;13.00;;;;;;;;;;1555764;92;21642;-92
2022/11/15 12:37:55;;;;;;;24.90;8.38;;;;;;;;;;1468194;95;22604;-92
2022/11/15 12:40:23;;;;;;;73.52;29.87;;;;;;;;;;1490108;94;21178;-92
2022/11/15 12:42:56;;;;;;;27.87;11.05;;;;;;;;;;1493520;96;21112;-92
2022/11/15 12:45:37;;;;;;;28.92;9.95;;;;;;;;;;1449178;98;21097;-91
2022/11/15 12:48:18;;;;;;;31.17;8.35;;;;;;;;;;1413399;100;21094;-92
2022/11/15 12:50:58;;;;;;;26.97;10.10;;;;;;;;;;1413045;100;22679;-92
2022/11/15 12:53:27;;;;;;;42.00;11.85;;;;;;;;;;1412967;100;21140;-91
2022/11/15 12:56:11;;;;;;;29.90;9.95;;;;;;;;;;1412753;100;22656;-92
2022/11/15 12:58:55;;;;;;;27.82;8.08;;;;;;;;;;1413176;100;21606;-92
2022/11/15 13:01:39;;;;;;;33.00;10.15;;;;;;;;;;1415172;99;21193;-92
2022/11/15 13:04:24;;;;;;;37.40;10.05;;;;;;;;;;1434454;98;22026;-92
2022/11/15 13:07:07;;;;;;;29.40;9.63;;;;;;;;;;1391571;103;21624;-91
2022/11/15 13:09:40;;;;;;;23.87;7.70;;;;;;;;;;1399299;100;22319;-91
2022/11/15 13:12:29;;;;;;;40.12;9.03;;;;;;;;;;1439814;97;21705;-91
2022/11/15 13:15:18;;;;;;;44.60;14.30;;;;;;;;;;1459601;98;21605;-91
2022/11/15 13:17:50;;;;;;;32.25;12.23;;;;;;;;;;1458934;97;21258;-91
2022/11/15 13:20:19;;;;;;;57.33;17.00;;;;;;;;;;1494961;95;21121;-91
2022/11/15 13:23:04;;;;;;;44.85;12.78;;;;;;;;;;1547375;89;21058;-91
2022/11/15 13:25:38;;;;;;;55.92;18.20;;;;;;;;;;1604042;89;21594;-92
2022/11/15 13:28:14;;;;;;;41.00;13.18;;;;;;;;;;1604503;89;21088;-92
2022/11/15 13:30:41;;;;;;;42.27;12.95;;;;;;;;;;1604297;89;21166;-92
2022/11/15 13:33:13;;;;;;;45.95;14.43;;;;;;;;;;1604255;89;21058;-92
2022/11/15 13:35:40;;;;;;;39.60;13.98;;;;;;;;;;1685422;82;21069;-91
2022/11/15 13:38:08;;;;;;;53.87;15.68;;;;;;;;;;1695256;82;21042;-92
2022/11/15 13:40:35;;;;;;;56.40;17.60;;;;;;;;;;1692891;83;21550;-92
2022/11/15 13:43:17;;;;;;;51.08;15.05;;;;;;;;;;1695095;83;21079;-92
2022/11/15 13:45:43;;;;;;;47.25;15.60;;;;;;;;;;1633104;86;21115;-92
2022/11/15 13:48:10;;;;;;;45.73;14.38;;;;;;;;;;1639284;86;21058;-92
2022/11/15 13:50:37;;;;;;;50.70;15.38;;;;;;;;;;1638373;86;21063;-92
2022/11/15 13:53:04;;;;;;;49.83;14.10;;;;;;;;;;1638234;86;21121;-91
2022/11/15 13:55:32;;;;;;;49.15;14.35;;;;;;;;;;1638831;86;21077;-91
2022/11/15 13:58:00;;;;;;;51.63;16.67;;;;;;;;;;1638372;86;21062;-92
2022/11/15 14:00:42;;;;;;;59.88;18.65;;;;;;;;;;1639588;85;21011;-92
2022/11/15 14:03:23;;;;;;;60.70;17.75;;;;;;;;;;1639436;86;21430;-92
2022/11/15 14:06:12;;;;;;;58.70;18.42;;;;;;;;;;1638280;86;21031;-92
2022/11/15 14:08:40;;;;;;;61.23;16.77;;;;;;;;;;1638298;86;21104;-92
2022/11/15 14:11:08;;;;;;;59.03;18.37;;;;;;;;;;1637700;86;22615;-92
2022/11/15 14:13:34;;;;;;;46.92;16.07;;;;;;;;;;1632357;85;21032;-91
2022/11/15 14:16:14;;;;;;;56.85;17.52;;;;;;;;;;1600114;88;21009;-92
2022/11/15 14:18:44;;;;;;;55.88;17.85;;;;;;;;;;1619811;87;21690;-91
2022/11/15 14:21:10;;;;;;;50.28;15.93;;;;;;;;;;1560987;90;21235;-91
2022/11/15 14:23:36;;;;;;;60.80;17.10;;;;;;;;;;1601540;87;21131;-91
2022/11/15 14:26:01;;;;;;;71.42;19.30;;;;;;;;;;1607870;89;20932;-91
2022/11/15 14:28:30;;;;;;;55.67;18.15;;;;;;;;;;1609796;87;20978;-91
2022/11/15 14:30:58;;;;;;;78.70;22.93;;;;;;;;;;1610529;87;21086;-91
2022/11/15 14:33:33;;;;;;;123.28;32.48;;;;;;;;;;1610350;89;21367;-91
2022/11/15 14:36:08;;;;;;;141.15;36.77;;;;;;;;;;1612168;87;21063;-91
2022/11/15 14:38:34;;;;;;;230.40;59.53;;;;;;;;;;1586521;90;21709;-91
2022/11/15 15:09:57;;;;;;;372.65;108.47;;;;;;;0.70;100.00;101402.28;1785072;79;26177;-88
2022/11/15 15:12:23;;;;;;;385.22;110.52;;;;;;;0.63;100.00;101399.52;1757802;80;21051;-90
2022/11/15 15:14:51;;;;;;;367.25;105.72;;;;;;;0.63;100.00;101411.45;1743617;80;21620;-90
2022/11/15 15:17:17;;;;;;;388.10;109.95;;;;;;;0.60;100.00;101412.62;1750119;80;21184;-86
2022/11/15 15:19:43;;;;;;;397.30;114.95;;;;;;;0.59;100.00;101410.98;1735510;81;21027;-88
2022/11/15 15:22:15;;;;;;;357.62;101.67;;;;;;;0.63;100.00;101406.14;1746566;82;20937;-88
2022/11/15 15:24:42;;;;;;;338.68;94.17;;;;;;;0.63;100.00;101405.64;1641944;85;21023;-88
